createdAt,value
2018-12-19T00:00:27.402Z,41.80
2018-12-19T00:01:04.304Z,42.43
2018-12-19T00:01:41.063Z,42.20
2018-12-19T00:02:17.516Z,42.10
2018-12-19T00:02:53.534Z,42.30
2018-12-19T00:03:29.700Z,45.83
2018-12-19T00:04:05.878Z,40.65
2018-12-19T00:04:43.523Z,40.35
2018-12-19T00:05:20.097Z,38.73
2018-12-19T00:05:56.581Z,41.70
2018-12-19T00:06:33.123Z,54.77
2018-12-19T00:07:09.178Z,45.15
2018-12-19T00:07:47.856Z,45.52
2018-12-19T00:08:26.026Z,47.38
2018-12-19T00:09:03.376Z,46.90
2018-12-19T00:09:39.842Z,48.98
2018-12-19T00:10:16.937Z,49.27
2018-12-19T00:10:53.042Z,49.60
2018-12-19T00:11:29.590Z,48.28
2018-12-19T00:12:06.120Z,49.55
2018-12-19T00:12:42.604Z,52.55
2018-12-19T00:13:20.299Z,50.00
2018-12-19T00:13:56.699Z,48.85
2018-12-19T00:14:32.946Z,50.40
2018-12-19T00:15:09.652Z,51.68
2018-12-19T00:15:46.144Z,50.95
2018-12-19T00:16:22.515Z,47.33
2018-12-19T00:16:58.663Z,49.88
2018-12-19T00:17:34.737Z,51.53
2018-12-19T00:18:17.832Z,53.52
2018-12-19T00:18:54.278Z,50.55
2018-12-19T00:19:30.354Z,50.70
2018-12-19T00:20:07.905Z,50.50
2018-12-19T00:20:44.012Z,45.65
2018-12-19T00:21:20.031Z,51.65
2018-12-19T00:21:56.064Z,48.95
2018-12-19T00:22:32.387Z,48.50
2018-12-19T00:23:08.472Z,47.95
2018-12-19T00:23:44.551Z,51.25
2018-12-19T00:24:20.728Z,48.40
2018-12-19T00:24:56.790Z,51.20
2018-12-19T00:25:32.914Z,46.15
2018-12-19T00:26:09.738Z,52.25
2018-12-19T00:26:45.864Z,53.38
2018-12-19T00:27:25.819Z,49.75
2018-12-19T00:28:02.564Z,46.98
2018-12-19T00:28:38.626Z,46.42
2018-12-19T00:29:14.666Z,53.73
2018-12-19T00:29:51.106Z,49.70
2018-12-19T00:30:28.157Z,46.10
2018-12-19T00:31:04.578Z,49.13
2018-12-19T00:31:40.801Z,46.55
2018-12-19T00:32:16.913Z,49.88
2018-12-19T00:32:52.915Z,48.98
2018-12-19T00:33:29.038Z,51.13
2018-12-19T00:34:05.890Z,49.93
2018-12-19T00:34:41.954Z,51.55
2018-12-19T00:35:18.034Z,46.23
2018-12-19T00:35:54.112Z,53.58
2018-12-19T00:36:30.140Z,49.75
2018-12-19T00:37:06.252Z,47.78
2018-12-19T00:37:42.276Z,48.05
2018-12-19T00:38:19.052Z,48.02
2018-12-19T00:38:55.490Z,43.85
2018-12-19T00:39:31.556Z,47.33
2018-12-19T00:40:08.633Z,46.08
2018-12-19T00:40:45.132Z,44.58
2018-12-19T00:41:21.202Z,47.17
2018-12-19T00:41:57.252Z,49.10
2018-12-19T00:42:33.292Z,46.77
2018-12-19T00:43:09.730Z,47.85
2018-12-19T00:43:46.202Z,55.80
2018-12-19T00:44:22.524Z,45.30
2018-12-19T00:44:58.919Z,48.08
2018-12-19T00:45:35.342Z,47.73
2018-12-19T00:46:11.374Z,50.43
2018-12-19T00:46:47.510Z,49.53
2018-12-19T00:47:23.637Z,53.63
2018-12-19T00:48:00.142Z,43.63
2018-12-19T00:48:42.556Z,49.33
2018-12-19T00:49:19.108Z,51.37
2018-12-19T00:49:55.171Z,56.37
2018-12-19T00:50:31.633Z,46.37
2018-12-19T00:51:07.860Z,55.05
2018-12-19T00:51:43.886Z,51.53
2018-12-19T00:52:19.967Z,52.67
2018-12-19T00:52:56.490Z,48.05
2018-12-19T00:53:32.723Z,53.78
2018-12-19T00:54:08.875Z,52.80
2018-12-19T00:54:44.914Z,56.53
2018-12-19T00:55:21.402Z,50.58
2018-12-19T00:55:57.553Z,50.43
2018-12-19T00:56:34.026Z,49.83
2018-12-19T00:57:10.079Z,46.88
2018-12-19T00:57:46.314Z,54.98
2018-12-19T00:58:22.322Z,42.90
2018-12-19T00:58:59.285Z,44.00
2018-12-19T00:59:35.803Z,50.60
2018-12-19T01:00:12.633Z,43.90
2018-12-19T01:00:49.159Z,51.20
2018-12-19T01:01:25.307Z,48.15
2018-12-19T01:02:01.754Z,47.30
2018-12-19T01:02:38.071Z,51.98
2018-12-19T01:03:14.556Z,47.00
2018-12-19T01:03:52.076Z,49.35
2018-12-19T01:04:28.375Z,49.08
2018-12-19T01:05:05.695Z,47.75
2018-12-19T01:05:41.701Z,47.10
2018-12-19T01:06:17.744Z,51.70
2018-12-19T01:06:54.192Z,49.70
2018-12-19T01:07:30.636Z,51.53
2018-12-19T01:08:06.713Z,48.90
2018-12-19T01:08:43.147Z,43.90
2018-12-19T01:09:19.201Z,50.63
2018-12-19T01:09:55.226Z,50.43
2018-12-19T01:10:31.563Z,51.18
2018-12-19T01:11:08.125Z,49.35
2018-12-19T01:11:44.191Z,40.03
2018-12-19T01:12:20.632Z,44.98
2018-12-19T01:12:56.702Z,41.68
2018-12-19T01:13:32.756Z,53.75
2018-12-19T01:14:08.809Z,46.05
2018-12-19T01:14:44.861Z,47.50
2018-12-19T01:15:20.947Z,42.38
2018-12-19T01:15:57.594Z,40.55
2018-12-19T01:16:34.159Z,45.20
2018-12-19T01:17:10.211Z,43.73
2018-12-19T01:17:46.359Z,47.27
2018-12-19T01:18:22.359Z,35.95
2018-12-19T01:18:58.422Z,35.78
2018-12-19T01:19:34.864Z,37.75
2018-12-19T01:20:11.311Z,44.88
2018-12-19T01:20:47.991Z,40.03
2018-12-19T01:21:24.059Z,42.95
2018-12-19T01:22:00.509Z,43.42
2018-12-19T01:22:36.535Z,39.80
2018-12-19T01:23:12.581Z,48.33
2018-12-19T01:23:48.683Z,42.70
2018-12-19T01:24:25.081Z,51.33
2018-12-19T01:25:01.125Z,40.60
2018-12-19T01:25:37.795Z,41.92
2018-12-19T01:26:13.803Z,43.13
2018-12-19T01:26:49.889Z,42.93
2018-12-19T01:27:25.925Z,44.05
2018-12-19T01:28:01.995Z,46.98
2018-12-19T01:28:38.576Z,53.68
2018-12-19T01:29:14.615Z,45.58
2018-12-19T01:29:50.635Z,49.00
2018-12-19T01:30:27.051Z,48.35
2018-12-19T01:31:03.194Z,48.00
2018-12-19T01:31:39.307Z,47.83
2018-12-19T01:32:15.773Z,48.75
2018-12-19T01:32:53.007Z,43.92
2018-12-19T01:33:29.019Z,45.12
2018-12-19T01:34:05.465Z,47.35
2018-12-19T01:34:41.631Z,48.38
2018-12-19T01:35:17.653Z,56.90
2018-12-19T01:35:54.499Z,47.83
2018-12-19T01:36:30.615Z,48.75
2018-12-19T01:37:07.099Z,54.00
2018-12-19T01:37:43.123Z,56.18
2018-12-19T01:38:19.163Z,49.60
2018-12-19T01:38:55.227Z,49.13
2018-12-19T01:39:31.654Z,48.13
2018-12-19T01:40:08.935Z,60.92
2018-12-19T01:40:45.543Z,53.90
2018-12-19T01:41:21.615Z,48.70
2018-12-19T01:41:57.881Z,45.48
2018-12-19T01:42:34.756Z,47.40
2018-12-19T01:43:10.817Z,55.15
2018-12-19T01:43:46.858Z,55.65
2018-12-19T01:44:23.035Z,47.70
2018-12-19T01:44:59.151Z,48.40
2018-12-19T01:45:35.301Z,51.02
2018-12-19T01:46:11.402Z,54.40
2018-12-19T01:46:47.445Z,46.28
2018-12-19T01:47:23.495Z,55.08
2018-12-19T01:48:02.725Z,47.88
2018-12-19T01:48:39.187Z,54.67
2018-12-19T01:49:15.203Z,54.20
2018-12-19T01:49:51.237Z,53.13
2018-12-19T01:50:27.869Z,45.90
2018-12-19T01:51:04.303Z,47.45
2018-12-19T01:51:40.730Z,49.08
2018-12-19T01:52:17.611Z,45.12
2018-12-19T01:52:53.675Z,50.03
2018-12-19T01:53:30.346Z,47.75
2018-12-19T01:54:06.440Z,53.40
2018-12-19T01:54:43.126Z,44.58
2018-12-19T01:55:20.109Z,47.23
2018-12-19T01:55:57.159Z,48.65
2018-12-19T01:56:33.714Z,46.15
2018-12-19T01:57:10.159Z,45.65
2018-12-19T01:57:46.625Z,50.55
2018-12-19T01:58:22.669Z,46.50
2018-12-19T01:58:58.823Z,42.65
2018-12-19T01:59:34.919Z,45.88
2018-12-19T02:00:11.373Z,43.52
2018-12-19T02:00:47.571Z,43.68
2018-12-19T02:01:23.649Z,41.35
2018-12-19T02:01:59.760Z,46.95
2018-12-19T02:02:37.561Z,45.03
2018-12-19T02:03:14.609Z,48.10
2018-12-19T02:03:50.659Z,49.00
2018-12-19T02:04:26.769Z,40.08
2018-12-19T02:05:03.707Z,46.55
2018-12-19T02:05:40.947Z,44.67
2018-12-19T02:06:17.112Z,43.35
2018-12-19T02:06:53.182Z,50.73
2018-12-19T02:07:29.735Z,46.13
2018-12-19T02:08:06.479Z,42.98
2018-12-19T02:08:42.713Z,49.90
2018-12-19T02:09:19.393Z,40.05
2018-12-19T02:09:55.431Z,41.73
2018-12-19T02:10:31.907Z,39.60
2018-12-19T02:11:08.035Z,42.88
2018-12-19T02:11:44.527Z,38.60
2018-12-19T02:12:21.027Z,41.42
2018-12-19T02:12:57.532Z,41.20
2018-12-19T02:13:33.775Z,39.90
2018-12-19T02:14:10.285Z,47.20
2018-12-19T02:14:46.535Z,38.67
2018-12-19T02:15:22.657Z,43.08
2018-12-19T02:15:58.768Z,46.00
2018-12-19T02:16:35.265Z,44.63
2018-12-19T02:17:11.738Z,40.70
2018-12-19T02:17:47.826Z,37.23
2018-12-19T02:18:23.886Z,40.95
2018-12-19T02:19:00.059Z,42.25
2018-12-19T02:19:36.509Z,36.70
2018-12-19T02:20:12.987Z,42.25
2018-12-19T02:20:49.087Z,41.48
2018-12-19T02:21:25.169Z,39.95
2018-12-19T02:22:01.205Z,43.48
2018-12-19T02:22:37.915Z,40.05
2018-12-19T02:23:14.268Z,40.25
2018-12-19T02:23:54.669Z,38.20
2018-12-19T02:24:30.765Z,36.08
2018-12-19T02:25:07.615Z,38.98
2018-12-19T02:25:44.329Z,36.73
2018-12-19T02:26:20.402Z,44.73
2018-12-19T02:26:56.425Z,37.53
2018-12-19T02:27:33.812Z,37.75
2018-12-19T02:28:10.863Z,41.33
2018-12-19T02:28:47.011Z,37.88
2018-12-19T02:29:23.333Z,42.30
2018-12-19T02:29:59.804Z,37.98
2018-12-19T02:30:36.513Z,35.58
2018-12-19T02:31:12.654Z,38.63
2018-12-19T02:31:49.360Z,35.92
2018-12-19T02:32:25.388Z,39.10
2018-12-19T02:33:01.760Z,36.50
2018-12-19T02:33:38.227Z,37.75
2018-12-19T02:34:14.672Z,33.30
2018-12-19T02:34:51.194Z,45.65
2018-12-19T02:35:27.401Z,31.68
2018-12-19T02:36:04.188Z,40.17
2018-12-19T02:36:40.212Z,36.80
2018-12-19T02:37:17.274Z,40.12
2018-12-19T02:37:54.167Z,40.30
2018-12-19T02:38:30.338Z,33.67
2018-12-19T02:39:08.174Z,35.83
2018-12-19T02:39:45.299Z,37.93
2018-12-19T02:40:21.717Z,34.25
2018-12-19T02:40:58.119Z,38.28
2018-12-19T02:41:34.152Z,36.83
2018-12-19T02:42:10.857Z,40.83
2018-12-19T02:42:47.263Z,44.10
2018-12-19T02:43:25.801Z,43.78
2018-12-19T02:44:02.194Z,44.27
2018-12-19T02:44:39.463Z,38.35
2018-12-19T02:45:15.539Z,43.02
2018-12-19T02:45:51.948Z,41.05
2018-12-19T02:46:28.364Z,43.40
2018-12-19T02:47:04.398Z,41.88
2018-12-19T02:47:41.583Z,39.73
2018-12-19T02:48:18.022Z,38.75
2018-12-19T02:48:54.046Z,40.25
2018-12-19T02:49:30.076Z,36.40
2018-12-19T02:50:07.230Z,40.40
2018-12-19T02:50:49.026Z,42.23
2018-12-19T02:51:25.133Z,36.83
2018-12-19T02:52:01.484Z,39.50
2018-12-19T02:52:37.550Z,36.33
2018-12-19T02:53:13.978Z,39.67
2018-12-19T02:53:52.024Z,37.25
2018-12-19T02:54:28.468Z,43.15
2018-12-19T02:55:05.374Z,39.67
2018-12-19T02:55:41.842Z,41.37
2018-12-19T02:56:18.664Z,39.75
2018-12-19T02:56:58.746Z,38.60
2018-12-19T02:58:17.524Z,38.73
2018-12-19T02:58:53.647Z,41.50
2018-12-19T02:59:29.710Z,42.50
2018-12-19T03:00:07.065Z,39.23
2018-12-19T03:00:43.210Z,43.10
2018-12-19T03:01:19.243Z,39.10
2018-12-19T03:01:55.707Z,40.12
2018-12-19T03:02:31.728Z,40.08
2018-12-19T03:03:08.193Z,42.48
2018-12-19T03:03:44.700Z,44.23
2018-12-19T03:04:20.762Z,41.33
2018-12-19T03:04:57.429Z,42.67
2018-12-19T03:05:33.459Z,43.63
2018-12-19T03:06:09.502Z,41.35
2018-12-19T03:06:46.311Z,44.93
2018-12-19T03:07:22.366Z,50.30
2018-12-19T03:07:58.544Z,40.25
2018-12-19T03:08:34.562Z,42.55
2018-12-19T03:09:10.613Z,37.93
2018-12-19T03:09:46.654Z,47.25
2018-12-19T03:10:22.693Z,35.55
2018-12-19T03:10:59.026Z,44.63
2018-12-19T03:11:35.730Z,38.53
2018-12-19T03:12:11.754Z,43.83
2018-12-19T03:12:47.854Z,46.53
2018-12-19T03:13:23.898Z,48.98
2018-12-19T03:14:00.251Z,44.67
2018-12-19T03:14:36.343Z,38.33
2018-12-19T03:15:12.362Z,38.23
2018-12-19T03:15:48.454Z,45.88
2018-12-19T03:16:25.205Z,38.25
2018-12-19T03:17:01.210Z,39.85
2018-12-19T03:17:37.271Z,42.43
2018-12-19T03:18:13.714Z,39.48
2018-12-19T03:18:49.755Z,39.70
2018-12-19T03:19:25.858Z,39.25
2018-12-19T03:20:01.863Z,39.00
2018-12-19T03:20:38.231Z,44.10
2018-12-19T03:21:14.662Z,47.40
2018-12-19T03:21:51.601Z,40.50
2018-12-19T03:22:28.026Z,42.25
2018-12-19T03:23:04.438Z,40.58
2018-12-19T03:23:40.860Z,40.67
2018-12-19T03:24:17.351Z,46.15
2018-12-19T03:24:53.791Z,37.85
2018-12-19T03:25:29.799Z,38.40
2018-12-19T03:26:05.842Z,39.63
2018-12-19T03:26:41.890Z,38.08
2018-12-19T03:27:18.322Z,43.98
2018-12-19T03:27:54.405Z,38.63
2018-12-19T03:28:30.450Z,39.73
2018-12-19T03:29:06.448Z,40.67
2018-12-19T03:29:42.490Z,37.83
2018-12-19T03:30:18.579Z,41.08
2018-12-19T03:30:54.636Z,42.38
2018-12-19T03:31:30.681Z,40.55
2018-12-19T03:32:07.387Z,38.08
2018-12-19T03:32:43.824Z,41.18
2018-12-19T03:33:20.134Z,36.60
2018-12-19T03:33:56.148Z,37.13
2018-12-19T03:34:32.204Z,40.63
2018-12-19T03:35:08.616Z,43.63
2018-12-19T03:35:45.070Z,39.23
2018-12-19T03:36:21.546Z,42.00
2018-12-19T03:36:57.578Z,37.90
2018-12-19T03:37:33.586Z,42.03
2018-12-19T03:38:12.854Z,37.00
2018-12-19T03:38:48.878Z,40.15
2018-12-19T03:39:25.866Z,42.27
2018-12-19T03:40:01.917Z,40.33
2018-12-19T03:40:38.360Z,34.70
2018-12-19T03:41:14.430Z,37.08
2018-12-19T03:41:51.073Z,42.60
2018-12-19T03:42:27.096Z,43.13
2018-12-19T03:43:03.206Z,39.25
2018-12-19T03:43:39.444Z,39.60
2018-12-19T03:44:15.554Z,40.60
2018-12-19T03:44:51.552Z,37.98
2018-12-19T03:45:34.339Z,39.92
2018-12-19T03:46:10.781Z,38.80
2018-12-19T03:46:46.822Z,35.35
2018-12-19T03:47:22.862Z,40.45
2018-12-19T03:47:58.909Z,39.15
2018-12-19T03:48:40.387Z,38.78
2018-12-19T03:49:16.934Z,39.83
2018-12-19T03:49:53.670Z,36.33
2018-12-19T03:50:29.676Z,37.38
2018-12-19T03:51:05.720Z,35.55
2018-12-19T03:51:42.247Z,37.65
2018-12-19T03:52:18.705Z,36.50
2018-12-19T03:52:54.771Z,43.23
2018-12-19T03:53:30.811Z,37.15
2018-12-19T03:54:06.837Z,42.83
2018-12-19T03:54:42.900Z,40.43
2018-12-19T03:55:19.351Z,40.60
2018-12-19T03:55:55.809Z,39.23
2018-12-19T03:56:32.306Z,38.20
2018-12-19T03:57:08.698Z,43.33
2018-12-19T03:57:45.022Z,39.33
2018-12-19T03:58:21.432Z,43.58
2018-12-19T03:58:58.309Z,43.10
2018-12-19T03:59:34.359Z,39.30
2018-12-19T04:00:11.214Z,42.17
2018-12-19T04:00:47.734Z,44.18
2018-12-19T04:01:24.294Z,45.40
2018-12-19T04:02:00.343Z,43.00
2018-12-19T04:02:36.348Z,41.55
2018-12-19T04:03:12.602Z,43.00
2018-12-19T04:03:48.631Z,43.70
2018-12-19T04:04:24.718Z,42.23
2018-12-19T04:05:00.731Z,42.65
2018-12-19T04:05:36.845Z,43.90
2018-12-19T04:06:13.350Z,41.70
2018-12-19T04:06:49.721Z,47.88
2018-12-19T04:07:25.773Z,44.70
2018-12-19T04:08:01.879Z,44.42
2018-12-19T04:08:37.937Z,42.70
2018-12-19T04:09:14.394Z,44.27
2018-12-19T04:09:57.460Z,41.98
2018-12-19T04:10:28.473Z,47.58
2018-12-19T04:11:04.910Z,43.15
2018-12-19T04:11:40.919Z,47.00
2018-12-19T04:12:16.980Z,48.17
2018-12-19T04:12:53.037Z,40.15
2018-12-19T04:13:29.092Z,41.00
2018-12-19T04:14:05.547Z,43.35
2018-12-19T04:14:41.650Z,44.23
2018-12-19T04:15:18.109Z,44.95
2018-12-19T04:15:54.136Z,46.68
2018-12-19T04:16:30.196Z,46.55
2018-12-19T04:17:07.070Z,42.98
2018-12-19T04:17:43.081Z,44.73
2018-12-19T04:18:19.502Z,44.45
2018-12-19T04:18:55.543Z,45.05
2018-12-19T04:19:31.942Z,40.03
2018-12-19T04:20:08.785Z,44.93
2018-12-19T04:20:44.798Z,42.13
2018-12-19T04:21:21.228Z,48.50
2018-12-19T04:21:57.270Z,43.80
2018-12-19T04:22:33.700Z,44.63
2018-12-19T04:23:10.133Z,45.83
2018-12-19T04:23:46.152Z,47.13
2018-12-19T04:24:22.158Z,39.15
2018-12-19T04:24:58.189Z,43.35
2018-12-19T04:25:34.212Z,46.18
2018-12-19T04:26:10.252Z,44.50
2018-12-19T04:26:46.316Z,42.15
2018-12-19T04:27:22.380Z,44.73
2018-12-19T04:27:58.428Z,42.40
2018-12-19T04:28:34.472Z,46.88
2018-12-19T04:29:10.497Z,47.25
2018-12-19T04:29:46.922Z,41.35
2018-12-19T04:30:23.007Z,44.45
2018-12-19T04:30:59.051Z,43.25
2018-12-19T04:31:35.483Z,42.83
2018-12-19T04:32:11.811Z,46.95
2018-12-19T04:32:48.614Z,47.25
2018-12-19T04:33:24.686Z,45.48
2018-12-19T04:34:00.704Z,45.20
2018-12-19T04:34:36.738Z,43.10
2018-12-19T04:35:13.178Z,46.85
2018-12-19T04:35:50.122Z,44.20
2018-12-19T04:36:26.161Z,42.40
2018-12-19T04:37:02.622Z,43.75
2018-12-19T04:37:38.647Z,42.17
2018-12-19T04:38:15.024Z,48.28
2018-12-19T04:38:51.310Z,44.95
2018-12-19T04:39:27.369Z,45.17
2018-12-19T04:40:05.621Z,45.35
2018-12-19T04:40:42.097Z,47.20
2018-12-19T04:41:18.569Z,45.33
2018-12-19T04:41:54.871Z,45.63
2018-12-19T04:42:31.942Z,46.28
2018-12-19T04:43:08.358Z,44.27
2018-12-19T04:43:44.404Z,41.42
2018-12-19T04:44:20.439Z,40.90
2018-12-19T04:44:56.530Z,46.25
2018-12-19T04:45:32.581Z,47.15
2018-12-19T04:46:09.064Z,47.70
2018-12-19T04:46:45.122Z,41.00
2018-12-19T04:47:21.382Z,40.95
2018-12-19T04:47:57.474Z,43.13
2018-12-19T04:48:33.566Z,42.00
2018-12-19T04:49:09.626Z,44.80
2018-12-19T04:49:45.670Z,39.75
2018-12-19T04:50:21.748Z,40.83
2018-12-19T04:50:58.210Z,46.02
2018-12-19T04:51:34.770Z,40.38
2018-12-19T04:52:10.810Z,39.50
2018-12-19T04:52:46.824Z,41.53
2018-12-19T04:53:22.903Z,42.40
2018-12-19T04:53:59.007Z,48.65
2018-12-19T04:54:35.418Z,39.63
2018-12-19T04:55:11.444Z,43.52
2018-12-19T04:55:47.491Z,41.45
2018-12-19T04:56:23.502Z,41.42
2018-12-19T04:57:00.374Z,44.35
2018-12-19T04:57:36.375Z,42.00
2018-12-19T04:58:12.380Z,45.17
2018-12-19T04:58:48.450Z,44.18
2018-12-19T04:59:24.909Z,41.40
2018-12-19T05:00:00.984Z,42.85
2018-12-19T05:00:37.492Z,44.60
2018-12-19T05:01:13.508Z,46.40
2018-12-19T05:01:49.922Z,49.93
2018-12-19T05:02:26.363Z,46.95
2018-12-19T05:03:02.671Z,45.70
2018-12-19T05:03:38.707Z,42.05
2018-12-19T05:04:14.707Z,48.75
2018-12-19T05:04:50.743Z,45.03
2018-12-19T05:05:26.794Z,50.95
2018-12-19T05:06:02.816Z,38.42
2018-12-19T05:06:38.864Z,38.45
2018-12-19T05:07:14.856Z,46.55
2018-12-19T05:07:51.386Z,42.50
2018-12-19T05:08:27.529Z,47.55
2018-12-19T05:09:06.082Z,44.60
2018-12-19T05:09:42.064Z,42.23
2018-12-19T05:10:18.064Z,47.73
2018-12-19T05:10:54.522Z,45.75
2018-12-19T05:11:30.871Z,44.90
2018-12-19T05:12:06.912Z,47.13
2018-12-19T05:12:42.923Z,52.03
2018-12-19T05:13:18.967Z,47.48
2018-12-19T05:13:55.462Z,46.58
2018-12-19T05:14:31.895Z,40.28
2018-12-19T05:15:08.766Z,46.30
2018-12-19T05:15:44.815Z,43.05
2018-12-19T05:16:21.542Z,44.80
2018-12-19T05:16:57.627Z,45.58
2018-12-19T05:17:33.691Z,47.50
2018-12-19T05:18:10.204Z,46.48
2018-12-19T05:18:46.231Z,47.62
2018-12-19T05:19:22.620Z,45.75
2018-12-19T05:19:59.353Z,40.60
2018-12-19T05:20:35.397Z,46.73
2018-12-19T05:21:11.806Z,45.30
2018-12-19T05:21:48.236Z,48.40
2018-12-19T05:22:24.649Z,43.70
2018-12-19T05:23:00.691Z,46.30
2018-12-19T05:23:36.824Z,47.53
2018-12-19T05:24:12.869Z,45.60
2018-12-19T05:24:48.939Z,37.93
2018-12-19T05:25:25.378Z,44.53
2018-12-19T05:26:01.415Z,41.73
2018-12-19T05:26:37.482Z,40.23
2018-12-19T05:27:13.914Z,44.90
2018-12-19T05:27:50.319Z,42.03
2018-12-19T05:28:26.509Z,40.52
2018-12-19T05:29:02.520Z,45.23
2018-12-19T05:29:38.559Z,46.73
2018-12-19T05:30:15.008Z,42.50
2018-12-19T05:30:51.469Z,44.77
2018-12-19T05:31:27.487Z,42.90
2018-12-19T05:32:03.895Z,46.73
2018-12-19T05:32:39.935Z,43.73
2018-12-19T05:33:15.925Z,41.85
2018-12-19T05:33:51.961Z,43.00
2018-12-19T05:34:28.011Z,40.20
2018-12-19T05:35:05.288Z,47.08
2018-12-19T05:35:41.335Z,45.85
2018-12-19T05:36:17.355Z,46.35
2018-12-19T05:36:53.394Z,44.77
2018-12-19T05:37:29.850Z,41.63
2018-12-19T05:38:05.875Z,38.98
2018-12-19T05:38:41.945Z,48.35
2018-12-19T05:39:17.993Z,40.33
2018-12-19T05:39:54.055Z,45.70
2018-12-19T05:40:30.131Z,45.85
2018-12-19T05:41:06.229Z,46.85
2018-12-19T05:41:42.255Z,44.70
2018-12-19T05:42:18.457Z,46.85
2018-12-19T05:42:54.601Z,44.55
2018-12-19T05:43:30.777Z,44.60
2018-12-19T05:44:06.865Z,42.33
2018-12-19T05:44:42.963Z,41.60
2018-12-19T05:45:19.832Z,40.10
2018-12-19T05:45:56.287Z,41.28
2018-12-19T05:46:32.785Z,40.50
2018-12-19T05:47:10.602Z,46.48
2018-12-19T05:47:47.179Z,44.40
2018-12-19T05:48:23.221Z,43.13
2018-12-19T05:48:59.318Z,44.58
2018-12-19T05:49:35.997Z,41.35
2018-12-19T05:50:12.437Z,42.33
2018-12-19T05:50:48.461Z,43.95
2018-12-19T05:51:24.558Z,40.58
2018-12-19T05:52:00.589Z,44.93
2018-12-19T05:52:36.933Z,45.78
2018-12-19T05:53:13.015Z,44.77
2018-12-19T05:53:49.027Z,45.25
2018-12-19T05:54:25.107Z,40.33
2018-12-19T05:55:01.151Z,40.70
2018-12-19T05:55:37.571Z,43.65
2018-12-19T05:56:13.853Z,46.33
2018-12-19T05:56:49.957Z,44.42
2018-12-19T05:57:27.199Z,45.98
2018-12-19T05:58:03.631Z,44.20
2018-12-19T05:58:39.675Z,44.58
2018-12-19T05:59:57.825Z,40.88
2018-12-19T06:00:34.395Z,46.90
2018-12-19T06:01:10.834Z,41.02
2018-12-19T06:01:46.896Z,42.20
2018-12-19T06:02:22.929Z,44.50
2018-12-19T06:02:58.949Z,41.53
2018-12-19T06:03:35.454Z,46.73
2018-12-19T06:04:11.873Z,38.85
2018-12-19T06:04:47.939Z,41.48
2018-12-19T06:05:24.793Z,41.60
2018-12-19T06:06:00.854Z,41.53
2018-12-19T06:06:37.477Z,38.05
2018-12-19T06:07:13.830Z,40.50
2018-12-19T06:07:49.875Z,43.20
2018-12-19T06:08:25.959Z,42.43
2018-12-19T06:09:02.007Z,49.77
2018-12-19T06:09:38.075Z,47.23
2018-12-19T06:10:14.635Z,38.40
2018-12-19T06:10:50.707Z,42.62
2018-12-19T06:11:26.745Z,39.30
2018-12-19T06:12:03.135Z,38.38
2018-12-19T06:12:39.175Z,44.93
2018-12-19T06:13:15.330Z,46.58
2018-12-19T06:13:51.551Z,43.02
2018-12-19T06:14:27.644Z,42.90
2018-12-19T06:15:04.883Z,42.67
2018-12-19T06:15:40.931Z,45.45
2018-12-19T06:16:17.002Z,42.27
2018-12-19T06:16:53.770Z,43.28
2018-12-19T06:17:30.105Z,44.40
2018-12-19T06:18:06.189Z,45.85
2018-12-19T06:18:42.333Z,41.20
2018-12-19T06:19:18.357Z,47.85
2018-12-19T06:19:54.386Z,39.88
2018-12-19T06:20:30.471Z,43.08
2018-12-19T06:21:06.513Z,44.40
2018-12-19T06:21:42.560Z,41.80
2018-12-19T06:22:18.607Z,42.05
2018-12-19T06:22:54.685Z,41.05
2018-12-19T06:23:30.719Z,38.70
2018-12-19T06:24:06.755Z,38.92
2018-12-19T06:24:42.823Z,42.60
2018-12-19T06:25:18.855Z,41.08
2018-12-19T06:25:55.378Z,37.48
2018-12-19T06:26:31.406Z,41.13
2018-12-19T06:27:07.453Z,40.38
2018-12-19T06:27:43.972Z,39.60
2018-12-19T06:28:19.983Z,44.27
2018-12-19T06:28:56.044Z,42.58
2018-12-19T06:29:32.548Z,38.17
2018-12-19T06:30:09.641Z,40.08
2018-12-19T06:30:45.718Z,39.35
2018-12-19T06:31:21.789Z,41.77
2018-12-19T06:31:57.822Z,36.33
2018-12-19T06:32:33.903Z,40.12
2018-12-19T06:33:09.931Z,39.53
2018-12-19T06:33:46.281Z,38.88
2018-12-19T06:34:22.401Z,39.90
2018-12-19T06:34:58.463Z,36.23
2018-12-19T06:35:34.923Z,39.75
2018-12-19T06:36:11.433Z,38.23
2018-12-19T06:36:47.923Z,36.45
2018-12-19T06:37:23.988Z,44.93
2018-12-19T06:38:00.059Z,41.92
2018-12-19T06:38:36.131Z,40.38
2018-12-19T06:39:12.167Z,40.92
2018-12-19T06:39:48.208Z,38.95
2018-12-19T06:40:24.676Z,40.10
2018-12-19T06:41:00.794Z,41.50
2018-12-19T06:41:37.263Z,43.70
2018-12-19T06:42:13.342Z,38.33
2018-12-19T06:42:49.433Z,38.92
2018-12-19T06:43:25.552Z,50.05
2018-12-19T06:44:01.691Z,37.65
2018-12-19T06:44:38.197Z,41.13
2018-12-19T06:45:14.659Z,44.15
2018-12-19T06:45:50.825Z,39.53
2018-12-19T06:46:26.928Z,41.42
2018-12-19T06:47:02.979Z,40.75
2018-12-19T06:47:39.090Z,47.75
2018-12-19T06:48:15.530Z,38.33
2018-12-19T06:48:51.589Z,36.75
2018-12-19T06:49:27.927Z,39.10
2018-12-19T06:50:05.240Z,40.83
2018-12-19T06:50:41.290Z,43.40
2018-12-19T06:51:18.933Z,38.67
2018-12-19T06:51:55.299Z,42.62
2018-12-19T06:52:31.755Z,38.98
2018-12-19T06:53:07.808Z,38.08
2018-12-19T06:53:43.819Z,38.53
2018-12-19T06:54:19.843Z,39.98
2018-12-19T06:54:56.295Z,37.30
2018-12-19T06:55:32.345Z,34.73
2018-12-19T06:56:08.419Z,38.55
2018-12-19T06:56:44.511Z,38.25
2018-12-19T06:57:20.556Z,41.30
2018-12-19T06:57:56.874Z,40.90
2018-12-19T06:58:32.990Z,39.18
2018-12-19T06:59:09.019Z,40.00
2018-12-19T06:59:45.487Z,40.48
2018-12-19T07:00:22.303Z,41.00
2018-12-19T07:00:58.363Z,40.60
2018-12-19T07:01:34.415Z,38.98
2018-12-19T07:02:10.471Z,42.38
2018-12-19T07:02:46.676Z,38.60
2018-12-19T07:03:22.714Z,39.18
2018-12-19T07:03:59.200Z,35.88
2018-12-19T07:04:35.213Z,38.53
2018-12-19T07:05:11.260Z,43.87
2018-12-19T07:05:47.747Z,40.03
2018-12-19T07:06:25.140Z,40.92
2018-12-19T07:07:04.059Z,40.38
2018-12-19T07:07:40.933Z,39.18
2018-12-19T07:08:16.965Z,34.58
2018-12-19T07:08:53.535Z,40.55
2018-12-19T07:09:29.624Z,41.10
2018-12-19T07:10:07.053Z,39.78
2018-12-19T07:10:43.501Z,39.10
2018-12-19T07:11:19.891Z,40.30
2018-12-19T07:11:55.950Z,39.45
2018-12-19T07:12:32.281Z,35.95
2018-12-19T07:13:08.289Z,33.28
2018-12-19T07:13:44.749Z,41.33
2018-12-19T07:14:20.808Z,35.95
2018-12-19T07:14:57.179Z,39.88
2018-12-19T07:15:33.240Z,34.25
2018-12-19T07:16:09.335Z,37.42
2018-12-19T07:16:45.391Z,41.50
2018-12-19T07:17:21.525Z,35.03
2018-12-19T07:17:57.887Z,35.98
2018-12-19T07:18:33.927Z,31.62
2018-12-19T07:19:10.374Z,35.35
2018-12-19T07:19:46.395Z,40.67
2018-12-19T07:20:22.517Z,38.78
2018-12-19T07:20:59.373Z,42.93
2018-12-19T07:21:35.431Z,36.88
2018-12-19T07:22:11.479Z,39.15
2018-12-19T07:22:47.611Z,35.55
2018-12-19T07:23:23.669Z,44.80
2018-12-19T07:24:00.699Z,38.85
2018-12-19T07:24:37.109Z,40.90
2018-12-19T07:25:13.108Z,41.53
2018-12-19T07:25:49.139Z,40.63
2018-12-19T07:26:25.217Z,40.95
2018-12-19T07:27:01.630Z,37.63
2018-12-19T07:27:37.687Z,37.80
2018-12-19T07:28:13.755Z,39.05
2018-12-19T07:28:49.815Z,43.23
2018-12-19T07:29:26.641Z,39.58
2018-12-19T07:30:04.829Z,39.00
2018-12-19T07:30:40.891Z,37.30
2018-12-19T07:31:17.375Z,36.28
2018-12-19T07:31:53.529Z,36.38
2018-12-19T07:32:29.564Z,35.88
2018-12-19T07:35:58.731Z,42.98
2018-12-19T07:36:34.931Z,40.83
2018-12-19T07:37:11.068Z,40.78
2018-12-19T07:37:47.747Z,39.00
2018-12-19T07:38:24.189Z,38.05
2018-12-19T07:39:00.257Z,45.05
2018-12-19T07:39:36.323Z,33.95
2018-12-19T07:40:12.447Z,38.65
2018-12-19T07:40:48.551Z,37.78
2018-12-19T07:41:24.675Z,38.48
2018-12-19T07:42:01.197Z,38.20
2018-12-19T07:42:37.257Z,36.73
2018-12-19T07:43:13.349Z,40.10
2018-12-19T07:43:49.496Z,40.43
2018-12-19T07:44:25.691Z,39.50
2018-12-19T07:45:01.755Z,40.08
2018-12-19T07:45:37.845Z,39.05
2018-12-19T07:46:19.707Z,37.60
2018-12-19T07:46:52.376Z,42.98
2018-12-19T07:47:28.504Z,37.42
2018-12-19T07:48:04.973Z,37.30
2018-12-19T07:48:41.499Z,44.33
2018-12-19T07:49:17.603Z,38.50
2018-12-19T07:49:53.656Z,40.10
2018-12-19T07:50:29.747Z,39.15
2018-12-19T07:51:06.223Z,34.65
2018-12-19T07:51:42.351Z,35.28
2018-12-19T07:52:18.910Z,35.92
2018-12-19T07:52:55.253Z,33.30